Time;durP1;ratioP1;P1;durP2;ratioP2;P2;SDS_P1;SDS_P2;PMS_P1;PMS_P2;Temp;Humidity;BMP_temperature;BMP_pressure;BME280_temperature;BME280_humidity;BME280_pressure;Samples;Min_cycle;Max_cycle;Signal;HPM_P1;HPM_P2
2022/03/30 00:00:50;;;;;;;33.80;16.85;;;4.10;99.90;;;;;;4971842;28;20045;-88
2022/03/30 00:03:16;;;;;;;35.35;16.30;;;4.50;99.90;;;;;;4979370;28;20413;-89
2022/03/30 00:05:42;;;;;;;30.40;16.05;;;3.90;99.90;;;;;;4993929;28;20042;-88
2022/03/30 00:08:08;;;;;;;33.55;15.25;;;3.80;99.90;;;;;;4963065;28;20112;-88
2022/03/30 00:10:34;;;;;;;32.88;15.48;;;4.50;99.90;;;;;;4988439;28;20038;-88
2022/03/30 00:13:00;;;;;;;32.28;16.30;;;4.40;99.90;;;;;;4995746;28;20049;-88
2022/03/30 00:15:26;;;;;;;30.73;15.10;;;3.70;99.90;;;;;;4964657;28;20036;-89
2022/03/30 00:17:52;;;;;;;34.72;15.40;;;3.70;99.90;;;;;;4996273;28;20073;-88
2022/03/30 00:20:19;;;;;;;35.17;15.82;;;5.10;99.90;;;;;;4988266;28;20042;-93
2022/03/30 00:22:45;;;;;;;36.42;16.10;;;4.00;99.90;;;;;;4978511;28;20073;-92
2022/03/30 00:25:13;;;;;;;33.55;16.13;;;4.10;99.90;;;;;;4979870;28;20108;-86
2022/03/30 00:27:46;;;;;;;31.90;15.93;;;4.20;99.90;;;;;;4973641;28;20041;-86
2022/03/30 00:30:18;;;;;;;36.28;16.08;;;4.30;99.90;;;;;;4988219;28;20046;-86
2022/03/30 00:32:44;;;;;;;31.90;16.00;;;4.40;99.90;;;;;;4996592;28;20034;-86
2022/03/30 00:35:10;;;;;;;34.67;16.33;;;4.60;99.90;;;;;;4992350;28;20038;-86
2022/03/30 00:37:36;;;;;;;32.65;15.88;;;4.70;99.90;;;;;;4995894;28;20129;-86
2022/03/30 00:40:07;;;;;;;36.38;15.98;;;4.90;99.90;;;;;;4996100;28;20435;-86
2022/03/30 00:42:33;;;;;;;29.98;15.07;;;4.80;99.90;;;;;;4996501;28;20045;-93
2022/03/30 00:45:08;;;;;;;37.08;15.13;;;4.90;99.90;;;;;;4996168;28;20057;-93
2022/03/30 00:47:34;;;;;;;30.92;15.38;;;4.90;99.90;;;;;;4982965;28;20076;-93
2022/03/30 00:49:59;;;;;;;30.00;14.95;;;5.70;99.90;;;;;;4967738;28;20069;-93
2022/03/30 00:52:25;;;;;;;36.50;14.88;;;5.90;99.90;;;;;;4967620;28;20092;-93
2022/03/30 00:54:52;;;;;;;34.13;15.43;;;5.10;99.90;;;;;;4948162;28;20404;-93
2022/03/30 00:57:23;;;;;;;31.17;15.48;;;5.40;99.90;;;;;;4982098;28;20046;-93
2022/03/30 00:59:50;;;;;;;34.35;15.13;;;5.20;99.90;;;;;;4983931;28;20124;-86
2022/03/30 01:02:16;;;;;;;36.05;15.20;;;5.50;99.90;;;;;;4999861;28;20050;-86
2022/03/30 01:04:45;;;;;;;29.70;14.82;;;5.30;99.90;;;;;;4996277;28;20377;-86
2022/03/30 01:07:12;;;;;;;33.10;15.00;;;5.30;99.90;;;;;;4980084;28;20130;-86
2022/03/30 01:09:38;;;;;;;32.17;13.77;;;5.30;99.90;;;;;;4953230;28;20455;-86
2022/03/30 01:12:05;;;;;;;29.17;14.82;;;6.20;99.90;;;;;;4973614;28;20065;-86
2022/03/30 01:14:32;;;;;;;34.13;15.00;;;5.40;99.90;;;;;;4980133;28;20101;-86
2022/03/30 01:16:57;;;;;;;28.13;14.93;;;6.10;99.90;;;;;;4980448;28;20113;-93
2022/03/30 01:19:29;;;;;;;29.48;14.85;;;5.70;99.90;;;;;;4963585;28;20465;-93
2022/03/30 01:21:55;;;;;;;31.40;14.23;;;5.50;99.90;;;;;;4963379;28;20034;-94
2022/03/30 01:24:21;;;;;;;34.03;15.35;;;5.50;99.90;;;;;;4979603;28;20154;-93
2022/03/30 01:26:47;;;;;;;34.10;15.32;;;6.30;99.90;;;;;;4979611;28;20464;-93
2022/03/30 01:34:43;;;;;;;33.50;15.77;;;5.50;99.90;;;;;;4979384;28;20128;-89
2022/03/30 01:37:11;;;;;;;30.35;16.08;;;5.90;99.90;;;;;;4979384;28;20559;-89
2022/03/30 01:39:38;;;;;;;33.10;15.23;;;5.60;99.90;;;;;;4979361;28;20034;-89
2022/03/30 01:42:04;;;;;;;28.30;15.30;;;5.60;99.90;;;;;;4977064;28;20046;-89
2022/03/30 01:44:30;;;;;;;37.78;15.07;;;5.60;99.90;;;;;;4962854;28;20045;-87
2022/03/30 01:46:56;;;;;;;29.70;16.10;;;5.70;99.90;;;;;;4976363;28;20044;-86
2022/03/30 01:49:22;;;;;;;28.98;14.95;;;5.90;99.90;;;;;;4986616;28;20038;-86
2022/03/30 01:51:49;;;;;;;30.05;14.95;;;5.70;99.90;;;;;;4962847;28;20070;-86
2022/03/30 01:54:20;;;;;;;32.65;15.55;;;6.60;99.90;;;;;;4961802;28;20070;-86
2022/03/30 01:56:50;;;;;;;31.88;15.25;;;6.90;99.90;;;;;;4979375;28;20450;-86
2022/03/30 01:59:18;;;;;;;31.38;15.05;;;6.20;99.90;;;;;;4976330;28;20057;-86
2022/03/30 02:04:12;;;;;;;40.13;14.93;;;5.80;99.90;;;;;;4966378;28;20497;-89
2022/03/30 02:06:38;;;;;;;33.97;16.13;;;6.00;99.90;;;;;;4956725;28;20073;-92
2022/03/30 02:09:05;;;;;;;35.90;16.33;;;5.80;99.90;;;;;;4918614;28;20098;-92
2022/03/30 02:11:32;;;;;;;32.17;16.73;;;5.80;99.90;;;;;;4970652;28;20092;-92
2022/03/30 02:13:58;;;;;;;33.00;15.82;;;5.80;99.90;;;;;;4938989;28;20122;-92
2022/03/30 02:16:24;;;;;;;29.42;15.32;;;5.90;99.90;;;;;;4941698;28;20185;-92
2022/03/30 02:18:51;;;;;;;33.15;15.13;;;5.80;99.90;;;;;;4925723;28;20046;-92
2022/03/30 02:21:17;;;;;;;34.00;15.40;;;5.90;99.90;;;;;;4951246;28;20511;-86
2022/03/30 02:23:49;;;;;;;30.52;14.75;;;6.60;99.90;;;;;;4918936;28;20050;-85
2022/03/30 02:26:15;;;;;;;33.25;15.65;;;5.90;99.90;;;;;;4956148;28;20493;-86
2022/03/30 02:28:42;;;;;;;30.60;15.82;;;6.30;99.90;;;;;;4939876;28;20070;-86
2022/03/30 02:31:08;;;;;;;28.00;14.63;;;5.90;99.90;;;;;;4941823;28;20125;-86
2022/03/30 02:33:34;;;;;;;27.30;12.25;;;6.80;99.90;;;;;;4940332;28;20154;-85
2022/03/30 02:36:06;;;;;;;20.45;10.00;;;5.90;99.90;;;;;;4941862;28;20048;-85
2022/03/30 02:38:31;;;;;;;20.40;10.10;;;6.00;99.90;;;;;;4928388;28;20035;-85
2022/03/30 02:40:57;;;;;;;17.90;8.68;;;6.10;99.90;;;;;;4925916;28;20181;-85
2022/03/30 02:43:23;;;;;;;21.00;8.57;;;7.10;99.90;;;;;;4956599;28;20134;-85
2022/03/30 02:45:49;;;;;;;12.77;5.43;;;6.70;99.90;;;;;;4942227;28;20042;-86
2022/03/30 02:48:18;;;;;;;8.57;4.65;;;6.90;99.90;;;;;;4958334;28;20041;-85
2022/03/30 02:50:45;;;;;;;10.40;4.32;;;6.20;99.90;;;;;;4957805;28;20027;-85
2022/03/30 02:53:12;;;;;;;7.97;4.03;;;6.20;99.90;;;;;;4942648;28;20043;-86
2022/03/30 02:55:37;;;;;;;8.60;3.55;;;6.70;99.90;;;;;;4942903;28;20101;-89
2022/03/30 02:58:04;;;;;;;8.05;3.28;;;6.10;99.90;;;;;;4939930;28;20043;-89
2022/03/30 03:00:31;;;;;;;10.77;3.67;;;6.00;99.90;;;;;;4943373;28;20146;-90
2022/03/30 03:02:58;;;;;;;6.53;3.13;;;6.00;99.90;;;;;;4962138;28;20513;-89
2022/03/30 03:05:27;;;;;;;5.60;2.92;;;6.40;99.90;;;;;;4936543;29;20047;-89
2022/03/30 03:07:54;;;;;;;7.93;2.47;;;6.00;99.90;;;;;;4957031;28;20060;-89
2022/03/30 03:10:20;;;;;;;4.97;2.50;;;6.00;99.90;;;;;;4945111;29;20070;-89
2022/03/30 03:12:46;;;;;;;6.57;2.20;;;5.90;99.90;;;;;;4949044;28;20090;-92
2022/03/30 03:15:11;;;;;;;10.70;2.30;;;6.00;99.90;;;;;;4962397;28;20383;-91
2022/03/30 03:17:37;;;;;;;7.10;2.10;;;6.20;99.90;;;;;;4906427;29;20039;-92
2022/03/30 03:20:03;;;;;;;7.85;2.45;;;6.30;99.90;;;;;;4946596;29;20477;-92
2022/03/30 03:22:29;;;;;;;4.65;1.80;;;5.80;99.90;;;;;;4926565;29;20039;-91
2022/03/30 03:24:54;;;;;;;5.78;1.95;;;6.40;99.90;;;;;;4950243;28;20035;-92
2022/03/30 03:27:20;;;;;;;9.88;1.90;;;5.80;99.90;;;;;;4948498;29;20047;-92
2022/03/30 03:29:46;;;;;;;5.00;1.60;;;5.70;99.90;;;;;;4905650;29;20038;-89
2022/03/30 03:32:11;;;;;;;7.75;1.55;;;5.70;99.90;;;;;;4953149;28;20035;-90
2022/03/30 03:34:37;;;;;;;3.45;1.50;;;5.70;99.90;;;;;;4935765;29;20046;-90
2022/03/30 03:37:03;;;;;;;3.88;1.48;;;6.10;99.90;;;;;;4949297;29;20455;-90
2022/03/30 03:39:29;;;;;;;2.25;1.30;;;5.70;99.90;;;;;;4900839;29;20039;-89
2022/03/30 03:41:55;;;;;;;5.47;1.48;;;6.90;99.90;;;;;;4933835;29;20122;-89
2022/03/30 03:44:20;;;;;;;2.28;1.00;;;5.60;99.90;;;;;;4949661;29;20118;-90
2022/03/30 03:46:46;;;;;;;4.25;1.25;;;6.30;99.90;;;;;;4956369;28;20481;-91
2022/03/30 03:49:12;;;;;;;5.03;1.35;;;5.60;99.90;;;;;;4952924;28;20126;-86
2022/03/30 03:51:38;;;;;;;6.28;1.40;;;5.60;99.90;;;;;;4920110;29;20074;-86
2022/03/30 03:54:04;;;;;;;3.83;1.25;;;6.60;99.90;;;;;;4932698;29;20091;-86
2022/03/30 03:56:30;;;;;;;5.50;1.23;;;6.10;99.90;;;;;;4936325;29;20051;-86
2022/03/30 03:58:56;;;;;;;1.77;0.90;;;5.50;99.90;;;;;;4931624;29;20060;-86
2022/03/30 04:01:21;;;;;;;5.40;1.17;;;5.50;99.90;;;;;;4955556;28;20122;-86
2022/03/30 04:03:47;;;;;;;4.35;1.30;;;5.50;99.90;;;;;;4946555;28;20059;-86
2022/03/30 04:06:13;;;;;;;3.67;1.15;;;5.50;99.90;;;;;;4949957;29;20094;-86
2022/03/30 04:08:38;;;;;;;2.67;1.08;;;5.50;99.90;;;;;;4942473;29;20466;-86
2022/03/30 04:11:04;;;;;;;4.50;1.10;;;6.60;99.90;;;;;;4896826;29;20044;-86
2022/03/30 04:13:30;;;;;;;1.23;0.85;;;5.40;99.90;;;;;;4936155;29;20070;-86
2022/03/30 04:15:56;;;;;;;1.98;0.90;;;5.30;99.90;;;;;;4935364;29;20056;-86
2022/03/30 04:18:23;;;;;;;2.97;0.80;;;5.30;99.90;;;;;;4932185;29;20567;-88
2022/03/30 04:20:49;;;;;;;2.58;0.80;;;5.30;99.90;;;;;;4945569;29;20120;-88
2022/03/30 04:23:15;;;;;;;3.50;1.08;;;5.30;99.90;;;;;;4954859;28;20163;-86
2022/03/30 04:25:40;;;;;;;4.05;1.15;;;5.20;99.90;;;;;;4941941;29;20465;-86
2022/03/30 04:28:06;;;;;;;3.90;1.05;;;5.10;99.90;;;;;;4926125;29;20047;-86
2022/03/30 04:30:32;;;;;;;2.45;1.00;;;5.10;99.90;;;;;;4933530;29;20063;-86
2022/03/30 04:32:58;;;;;;;1.25;0.82;;;5.00;99.90;;;;;;4941227;29;20389;-86
2022/03/30 04:35:27;;;;;;;3.58;1.27;;;6.30;99.90;;;;;;4955728;28;20517;-92
2022/03/30 04:37:57;;;;;;;1.58;0.80;;;4.70;99.90;;;;;;4943266;29;20051;-92
2022/03/30 04:40:25;;;;;;;2.67;1.15;;;4.60;99.90;;;;;;4936590;28;20130;-86
2022/03/30 04:42:51;;;;;;;4.07;1.20;;;5.20;99.90;;;;;;4941265;29;20486;-86
2022/03/30 04:45:19;;;;;;;4.32;1.30;;;4.40;99.90;;;;;;4941864;28;20041;-86
2022/03/30 04:47:44;;;;;;;4.07;1.42;;;4.80;99.90;;;;;;4957860;28;20393;-86
2022/03/30 04:50:11;;;;;;;4.03;1.30;;;4.40;99.90;;;;;;4938395;29;20039;-86
2022/03/30 04:52:37;;;;;;;4.45;1.10;;;4.00;99.90;;;;;;4950095;29;20043;-86
2022/03/30 04:55:05;;;;;;;2.88;1.42;;;3.90;99.90;;;;;;4948449;29;20058;-86
2022/03/30 04:57:31;;;;;;;4.47;1.58;;;3.90;99.90;;;;;;4948739;29;20406;-86
2022/03/30 04:59:57;;;;;;;2.75;1.30;;;3.50;99.90;;;;;;4940110;29;20043;-86
2022/03/30 05:02:22;;;;;;;4.18;1.27;;;4.00;99.90;;;;;;4934067;29;20046;-86
2022/03/30 05:04:48;;;;;;;4.95;1.45;;;3.60;99.90;;;;;;4935763;29;20099;-86
2022/03/30 05:07:14;;;;;;;3.72;1.48;;;4.20;99.90;;;;;;4938857;29;20043;-86
2022/03/30 05:09:41;;;;;;;3.58;1.23;;;4.50;99.90;;;;;;4940729;29;20077;-86
2022/03/30 05:12:07;;;;;;;2.60;1.33;;;3.40;99.90;;;;;;4938101;29;20482;-87
2022/03/30 05:14:33;;;;;;;3.33;1.38;;;3.30;99.90;;;;;;4935469;29;20491;-88
2022/03/30 05:16:59;;;;;;;3.58;1.48;;;3.20;99.90;;;;;;4933536;29;20046;-88
2022/03/30 05:19:25;;;;;;;4.68;1.30;;;3.20;99.90;;;;;;4950268;29;20043;-88
2022/03/30 05:21:51;;;;;;;3.85;1.20;;;3.10;99.90;;;;;;4952236;29;20047;-88
2022/03/30 05:24:17;;;;;;;5.80;1.65;;;3.00;99.90;;;;;;4946067;28;20167;-88
2022/03/30 05:26:43;;;;;;;2.63;1.25;;;3.00;99.90;;;;;;4954677;28;20126;-86
2022/03/30 05:29:08;;;;;;;2.85;1.20;;;3.00;99.90;;;;;;4952151;28;20098;-85
2022/03/30 05:31:34;;;;;;;3.25;1.38;;;2.90;99.90;;;;;;4937984;29;20161;-85
2022/03/30 05:34:00;;;;;;;2.58;1.50;;;2.90;99.90;;;;;;4943906;29;20040;-85
2022/03/30 05:36:26;;;;;;;3.20;1.58;;;4.20;99.90;;;;;;4934426;29;20047;-85
2022/03/30 05:38:51;;;;;;;4.57;1.70;;;4.10;99.90;;;;;;4953889;28;20077;-85
2022/03/30 05:41:18;;;;;;;4.28;1.70;;;4.00;99.90;;;;;;4952256;29;20086;-85
2022/03/30 05:43:44;;;;;;;5.07;1.98;;;4.00;99.90;;;;;;4949111;29;20048;-85
2022/03/30 05:46:10;;;;;;;4.57;1.67;;;2.90;99.90;;;;;;4948260;29;20043;-85
2022/03/30 05:48:36;;;;;;;6.47;1.90;;;3.10;99.90;;;;;;4947558;29;20043;-85
2022/03/30 05:51:02;;;;;;;3.80;1.53;;;2.90;99.90;;;;;;4946343;28;20762;-85
2022/03/30 05:53:28;;;;;;;4.05;1.85;;;2.90;99.90;;;;;;4953325;29;20045;-85
2022/03/30 05:55:55;;;;;;;5.27;1.70;;;2.90;99.90;;;;;;4953566;29;20131;-85
2022/03/30 05:58:22;;;;;;;3.63;1.77;;;3.00;99.90;;;;;;4954289;29;20055;-89
2022/03/30 06:00:48;;;;;;;4.72;1.67;;;3.00;99.90;;;;;;4954190;29;20043;-88
2022/03/30 06:03:14;;;;;;;5.50;2.00;;;3.40;99.90;;;;;;4923961;29;20066;-89
2022/03/30 06:05:39;;;;;;;5.47;1.83;;;3.10;99.90;;;;;;4945801;29;20052;-88
2022/03/30 06:08:07;;;;;;;6.88;2.20;;;4.00;99.90;;;;;;4933710;29;20094;-89
2022/03/30 06:10:33;;;;;;;5.68;2.13;;;3.30;99.90;;;;;;4932845;29;20042;-91
2022/03/30 06:12:59;;;;;;;8.05;2.30;;;3.40;99.90;;;;;;4950250;29;20039;-92
2022/03/30 06:15:26;;;;;;;7.00;2.22;;;3.50;99.90;;;;;;4935195;29;20400;-91
2022/03/30 06:17:53;;;;;;;8.43;2.40;;;3.70;99.90;;;;;;4936322;28;20440;-90
2022/03/30 06:20:19;;;;;;;4.20;2.00;;;4.00;99.90;;;;;;4951784;29;20432;-91
2022/03/30 06:22:45;;;;;;;8.93;2.35;;;3.90;99.90;;;;;;4952072;28;20036;-92
2022/03/30 06:25:11;;;;;;;4.30;2.05;;;5.00;99.90;;;;;;4935454;28;20050;-91
2022/03/30 06:27:38;;;;;;;6.07;2.60;;;4.50;99.90;;;;;;4950537;28;20042;-92
2022/03/30 06:30:06;;;;;;;6.70;2.40;;;4.40;99.90;;;;;;4954480;28;20048;-92
2022/03/30 06:32:33;;;;;;;4.95;2.08;;;4.60;99.90;;;;;;4937830;29;20052;-89
2022/03/30 06:34:59;;;;;;;4.55;2.30;;;4.80;99.90;;;;;;4953005;28;20503;-89
2022/03/30 06:37:24;;;;;;;5.55;2.58;;;5.60;99.90;;;;;;4956009;28;20039;-90
2022/03/30 06:39:50;;;;;;;7.95;2.50;;;6.40;99.90;;;;;;4952690;29;20442;-91
2022/03/30 06:42:16;;;;;;;8.07;2.40;;;5.30;99.90;;;;;;4957226;28;20047;-90
2022/03/30 06:44:43;;;;;;;6.45;2.42;;;6.50;99.90;;;;;;4955421;28;20043;-91
2022/03/30 06:47:09;;;;;;;6.50;2.40;;;5.80;99.90;;;;;;4937874;28;20529;-90
2022/03/30 06:49:37;;;;;;;6.95;2.70;;;7.10;99.90;;;;;;4933688;28;20418;-85
2022/03/30 06:52:04;;;;;;;9.98;2.50;;;6.80;99.90;;;;;;4942870;28;20077;-85
2022/03/30 06:54:30;;;;;;;8.77;2.60;;;6.40;99.90;;;;;;4957451;28;20085;-91
2022/03/30 06:56:56;;;;;;;11.10;2.75;;;6.60;99.90;;;;;;4950041;28;20545;-90
2022/03/30 06:59:21;;;;;;;4.03;2.35;;;7.00;99.90;;;;;;4955503;28;20391;-90
2022/03/30 07:01:47;;;;;;;6.50;2.40;;;7.00;99.90;;;;;;4942352;28;20039;-90
2022/03/30 07:04:14;;;;;;;6.97;2.40;;;7.10;99.90;;;;;;4960032;28;20093;-91
2022/03/30 07:10:14;;;;;;;8.75;2.80;;;7.30;99.90;;;;;;4955647;28;20042;-86
2022/03/30 07:12:09;;;;;;;6.28;2.80;;;8.20;99.90;;;;;;4972835;28;20050;-85
2022/03/30 07:14:35;;;;;;;4.78;2.28;;;8.00;99.90;;;;;;4926535;28;20425;-85
2022/03/30 07:17:01;;;;;;;5.40;2.33;;;8.50;99.90;;;;;;4944645;28;20520;-85
2022/03/30 07:19:27;;;;;;;7.32;2.13;;;8.50;99.90;;;;;;4959688;28;20038;-85
2022/03/30 07:21:53;;;;;;;7.22;2.63;;;8.70;99.90;;;;;;4955912;28;20043;-86
2022/03/30 07:24:19;;;;;;;6.25;2.50;;;8.80;99.90;;;;;;4960879;28;20481;-86
2022/03/30 07:26:45;;;;;;;5.00;2.08;;;8.90;99.90;;;;;;4946661;28;20049;-86
2022/03/30 07:29:10;;;;;;;5.30;2.30;;;8.90;99.90;;;;;;4945456;28;20073;-86
2022/03/30 07:31:36;;;;;;;7.25;2.60;;;8.90;99.90;;;;;;4942206;28;20531;-87
2022/03/30 07:34:02;;;;;;;7.43;1.80;;;9.00;99.90;;;;;;4957610;28;20062;-86
2022/03/30 07:36:30;;;;;;;5.68;2.03;;;9.20;99.90;;;;;;4964258;28;20085;-87
2022/03/30 07:38:56;;;;;;;5.68;2.22;;;9.20;99.90;;;;;;4945034;28;20905;-91
2022/03/30 07:41:22;;;;;;;5.70;2.10;;;9.30;99.90;;;;;;4953813;28;20039;-92
2022/03/30 07:43:47;;;;;;;8.13;2.20;;;9.40;99.90;;;;;;4926000;28;20046;-91
2022/03/30 07:46:14;;;;;;;7.85;1.80;;;9.50;99.90;;;;;;4927531;28;20430;-92
2022/03/30 07:48:40;;;;;;;6.18;1.92;;;9.70;99.90;;;;;;4950307;28;20122;-91
2022/03/30 07:51:06;;;;;;;9.15;2.10;;;10.00;99.90;;;;;;4924754;28;20308;-92
2022/03/30 07:53:31;;;;;;;6.70;2.00;;;10.10;99.90;;;;;;4957037;28;20042;-91
2022/03/30 07:55:58;;;;;;;8.63;2.10;;;10.20;99.90;;;;;;4933239;28;20043;-85
2022/03/30 07:58:25;;;;;;;5.50;1.60;;;10.40;99.90;;;;;;4931785;28;20039;-86
2022/03/30 08:00:52;;;;;;;5.82;1.50;;;10.40;99.90;;;;;;4938305;28;20444;-86
2022/03/30 08:03:18;;;;;;;7.00;1.70;;;10.50;99.90;;;;;;4946434;23;20460;-87
2022/03/30 08:05:44;;;;;;;4.40;1.52;;;10.60;99.90;;;;;;4953650;28;20043;-87
2022/03/30 08:08:10;;;;;;;5.63;1.60;;;10.70;99.90;;;;;;4961524;28;20046;-87
2022/03/30 08:10:37;;;;;;;4.72;1.45;;;10.70;99.90;;;;;;4969008;28;20070;-87
2022/03/30 08:13:04;;;;;;;5.20;1.48;;;11.20;99.90;;;;;;4951922;28;20177;-87
2022/03/30 08:15:31;;;;;;;7.60;1.70;;;10.40;99.90;;;;;;4969861;28;20034;-86
2022/03/30 08:17:58;;;;;;;5.45;1.60;;;10.40;99.90;;;;;;4954167;28;20054;-87
2022/03/30 08:23:09;;;;;;;6.15;1.58;;;10.90;99.90;;;;;;4968938;28;20089;-86
2022/03/30 08:25:35;;;;;;;5.55;1.30;;;11.20;99.90;;;;;;4969719;28;20046;-86
2022/03/30 08:28:01;;;;;;;4.43;1.50;;;11.20;99.90;;;;;;4970154;28;20046;-90
2022/03/30 08:30:28;;;;;;;5.85;1.70;;;11.10;99.90;;;;;;4953254;28;20095;-91
2022/03/30 08:32:54;;;;;;;5.45;1.60;;;10.80;99.90;;;;;;4950675;28;20070;-90
2022/03/30 08:35:21;;;;;;;5.78;1.58;;;10.40;99.90;;;;;;4969721;28;20093;-91
2022/03/30 08:37:47;;;;;;;5.68;1.58;;;9.90;99.90;;;;;;4957559;28;20097;-91
2022/03/30 08:40:14;;;;;;;5.20;1.60;;;9.60;99.90;;;;;;4954365;28;20042;-91
2022/03/30 08:42:40;;;;;;;3.15;1.02;;;9.40;99.90;;;;;;4967924;28;20042;-90
2022/03/30 08:45:10;;;;;;;6.18;1.38;;;9.20;99.90;;;;;;4965823;28;20043;-88
2022/03/30 08:47:36;;;;;;;3.65;1.15;;;9.20;99.90;;;;;;4961137;28;20097;-88
2022/03/30 08:50:06;;;;;;;4.60;0.98;;;9.20;99.90;;;;;;4966172;28;20037;-88
2022/03/30 08:52:32;;;;;;;5.30;1.30;;;9.20;99.90;;;;;;4956238;28;20047;-89
2022/03/30 08:54:59;;;;;;;4.97;1.08;;;9.20;99.90;;;;;;4953702;28;20031;-89
2022/03/30 08:57:25;;;;;;;4.60;1.23;;;9.10;99.90;;;;;;4951582;28;20090;-89
2022/03/30 09:00:03;;;;;;;4.13;1.30;;;9.20;99.90;;;;;;4951822;28;20043;-89
2022/03/30 09:02:38;;;;;;;4.38;1.08;;;9.40;99.90;;;;;;4963058;28;20039;-91
2022/03/30 09:05:19;;;;;;;6.32;1.25;;;10.30;99.90;;;;;;4962653;28;20082;-91
2022/03/30 09:07:49;;;;;;;4.30;1.20;;;10.40;99.90;;;;;;4986678;28;20031;-91
2022/03/30 09:10:20;;;;;;;4.03;1.17;;;10.70;99.90;;;;;;4956727;28;20057;-91
2022/03/30 09:12:49;;;;;;;4.20;1.10;;;10.80;99.90;;;;;;4968360;28;20375;-92
2022/03/30 09:15:16;;;;;;;3.30;1.05;;;11.10;99.90;;;;;;4955263;28;20039;-91
2022/03/30 09:17:43;;;;;;;7.53;1.42;;;11.50;99.90;;;;;;4960742;28;20622;-91
2022/03/30 09:20:23;;;;;;;4.35;1.02;;;11.90;99.90;;;;;;4952891;28;20488;-90
2022/03/30 09:22:55;;;;;;;3.10;1.08;;;12.20;99.90;;;;;;4949822;29;20059;-89
2022/03/30 09:25:25;;;;;;;4.82;1.20;;;12.40;99.40;;;;;;4958534;28;20047;-90
2022/03/30 09:27:53;;;;;;;5.32;1.00;;;12.30;99.90;;;;;;4970706;28;20047;-89
2022/03/30 09:30:19;;;;;;;5.50;1.17;;;12.60;99.90;;;;;;4976512;28;20170;-89
2022/03/30 09:32:48;;;;;;;2.97;1.13;;;12.20;99.70;;;;;;4957773;28;20035;-88
2022/03/30 09:35:34;;;;;;;4.00;1.13;;;12.20;99.20;;;;;;4959824;28;20046;-91
2022/03/30 09:38:10;;;;;;;5.67;1.10;;;12.10;98.20;;;;;;4960201;28;20043;-92
2022/03/30 09:40:45;;;;;;;2.55;0.88;;;12.10;98.40;;;;;;4958100;28;20035;-91
2022/03/30 09:43:20;;;;;;;4.07;1.17;;;12.30;98.30;;;;;;4976615;28;20061;-92
2022/03/30 09:45:47;;;;;;;5.00;0.98;;;12.50;98.10;;;;;;4949496;29;20046;-92
2022/03/30 09:48:49;;;;;;;3.72;1.25;;;12.80;97.10;;;;;;4925317;29;20043;-93
2022/03/30 09:51:16;;;;;;;4.28;0.98;;;13.30;94.40;;;;;;4972663;28;20043;-92
2022/03/30 09:53:43;;;;;;;5.03;1.05;;;13.40;94.50;;;;;;4932621;29;20035;-92
2022/03/30 09:56:17;;;;;;;2.78;0.75;;;13.90;95.00;;;;;;4955997;29;20047;-92
2022/03/30 09:58:44;;;;;;;3.30;0.70;;;14.30;94.10;;;;;;4947768;28;20094;-93
2022/03/30 10:01:19;;;;;;;1.98;0.88;;;14.80;93.80;;;;;;4974792;28;20051;-93
2022/03/30 10:03:48;;;;;;;5.25;1.10;;;15.30;92.10;;;;;;4959407;28;20521;-93
2022/03/30 10:06:20;;;;;;;3.25;0.80;;;15.50;91.10;;;;;;4958897;28;20038;-92
2022/03/30 10:08:48;;;;;;;3.67;1.10;;;15.80;90.50;;;;;;4958633;28;20552;-93
2022/03/30 10:11:17;;;;;;;5.05;1.30;;;16.00;89.90;;;;;;4959357;28;20043;-93
2022/03/30 10:13:46;;;;;;;4.03;1.40;;;16.30;87.40;;;;;;4943456;28;20045;-93
2022/03/30 10:16:13;;;;;;;4.07;0.88;;;16.70;82.10;;;;;;4968023;28;20062;-93
2022/03/30 10:18:40;;;;;;;3.00;1.00;;;16.90;81.80;;;;;;4940138;29;20046;-93
2022/03/30 10:21:40;;;;;;;2.20;0.82;;;16.90;79.30;;;;;;4940443;28;20066;-92
2022/03/30 10:24:21;;;;;;;2.67;0.90;;;16.30;74.00;;;;;;4953802;29;20041;-94
2022/03/30 10:27:06;;;;;;;2.40;0.98;;;15.60;76.30;;;;;;4954511;28;20043;-87
2022/03/30 10:29:33;;;;;;;2.72;1.00;;;15.40;78.70;;;;;;4975297;28;20070;-87
2022/03/30 10:32:14;;;;;;;3.03;1.10;;;16.00;79.70;;;;;;4960905;28;20038;-87
2022/03/30 10:34:59;;;;;;;2.30;0.80;;;16.40;75.60;;;;;;4967658;28;20039;-87
2022/03/30 10:37:28;;;;;;;3.42;0.80;;;16.30;76.50;;;;;;4968927;28;20379;-87
2022/03/30 10:40:09;;;;;;;4.53;1.48;;;15.60;75.80;;;;;;4943079;28;20162;-87
2022/03/30 10:42:47;;;;;;;3.88;1.00;;;15.00;74.50;;;;;;4972227;28;20039;-89
2022/03/30 10:45:42;;;;;;;3.88;0.95;;;14.40;75.50;;;;;;4951749;28;20436;-89
2022/03/30 10:48:36;;;;;;;6.07;1.48;;;13.80;77.00;;;;;;4951338;28;20039;-90
2022/03/30 10:51:10;;;;;;;3.75;1.17;;;13.50;79.60;;;;;;4951218;28;20421;-90
2022/03/30 10:53:39;;;;;;;2.25;0.82;;;13.30;79.40;;;;;;4957024;28;20043;-89
2022/03/30 10:56:12;;;;;;;5.25;1.10;;;13.50;80.50;;;;;;4965190;28;20050;-91
2022/03/30 10:59:01;;;;;;;3.05;0.93;;;14.30;78.80;;;;;;4973190;28;20436;-88
2022/03/30 11:01:35;;;;;;;4.88;1.42;;;15.20;77.90;;;;;;4962224;28;20421;-87
2022/03/30 11:04:10;;;;;;;3.38;0.88;;;15.60;75.50;;;;;;4955310;28;20059;-87
2022/03/30 11:06:39;;;;;;;3.90;1.20;;;16.30;75.60;;;;;;4960415;28;20035;-88
2022/03/30 11:09:09;;;;;;;3.35;0.98;;;16.90;74.80;;;;;;4970997;28;20552;-88
2022/03/30 11:11:42;;;;;;;5.72;0.98;;;16.90;72.30;;;;;;4971945;28;20089;-88
2022/03/30 11:14:25;;;;;;;3.65;1.00;;;16.30;71.70;;;;;;4961088;28;20067;-88
2022/03/30 11:16:53;;;;;;;4.15;1.00;;;15.40;70.20;;;;;;4968765;28;20047;-90
2022/03/30 11:19:22;;;;;;;3.50;1.10;;;14.90;71.70;;;;;;4971149;28;20050;-90
2022/03/30 11:22:15;;;;;;;3.45;1.23;;;14.70;73.50;;;;;;4967489;28;20131;-90
2022/03/30 11:24:43;;;;;;;5.47;1.13;;;14.50;73.80;;;;;;4944097;28;20440;-91
2022/03/30 11:27:08;;;;;;;4.80;1.20;;;14.70;75.30;;;;;;4962328;28;20464;-90
2022/03/30 11:29:52;;;;;;;4.00;1.15;;;15.10;74.70;;;;;;4968053;28;20062;-90
2022/03/30 11:32:24;;;;;;;5.40;1.10;;;15.10;73.70;;;;;;4952279;28;20093;-91
2022/03/30 11:34:58;;;;;;;5.78;1.35;;;15.20;74.40;;;;;;4968954;28;20130;-92
2022/03/30 11:37:36;;;;;;;3.92;1.30;;;15.70;74.40;;;;;;4967692;28;20508;-88
2022/03/30 11:40:06;;;;;;;4.78;1.10;;;16.40;72.20;;;;;;4949546;28;20049;-87
2022/03/30 11:42:32;;;;;;;6.22;1.25;;;16.80;71.10;;;;;;4969771;28;20042;-89
2022/03/30 11:45:12;;;;;;;2.67;1.10;;;17.00;69.00;;;;;;4970432;28;20047;-89
2022/03/30 11:48:01;;;;;;;;;;;16.90;69.50;;;;;;4954630;28;20042;-89
2022/03/30 11:50:35;;;;;;;4.28;1.23;;;16.80;69.90;;;;;;4972963;28;19918;-89
2022/03/30 11:53:07;;;;;;;3.47;0.90;;;16.90;68.30;;;;;;4973469;28;20073;-91
2022/03/30 11:55:38;;;;;;;2.97;1.00;;;16.90;67.70;;;;;;4967354;28;20130;-91
2022/03/30 11:58:05;;;;;;;2.75;1.00;;;17.00;66.00;;;;;;4962576;28;20117;-90
2022/03/30 12:00:32;;;;;;;5.25;1.23;;;17.00;66.70;;;;;;4954099;28;20043;-90
2022/03/30 12:03:00;;;;;;;3.20;1.25;;;17.00;67.60;;;;;;4964416;28;20416;-91
2022/03/30 12:05:26;;;;;;;6.35;2.20;;;16.80;67.70;;;;;;4971696;28;20136;-91
2022/03/30 12:07:57;;;;;;;2.50;1.10;;;16.20;67.90;;;;;;4937933;29;20071;-89
2022/03/30 12:10:31;;;;;;;5.63;1.80;;;15.40;69.00;;;;;;4966707;28;20043;-90
2022/03/30 12:12:57;;;;;;;4.78;1.58;;;14.90;70.40;;;;;;4973058;28;20046;-89
2022/03/30 12:15:23;;;;;;;3.92;1.33;;;14.20;71.10;;;;;;4956048;28;20098;-90
2022/03/30 12:17:54;;;;;;;4.93;1.10;;;13.70;71.50;;;;;;4966452;28;20046;-89
2022/03/30 12:20:25;;;;;;;5.57;1.60;;;13.30;72.80;;;;;;4967200;28;20038;-89
2022/03/30 12:22:59;;;;;;;4.82;1.45;;;13.00;74.30;;;;;;4968539;28;20039;-89
2022/03/30 12:25:33;;;;;;;6.57;1.77;;;12.70;75.30;;;;;;4964979;28;20043;-88
2022/03/30 12:28:01;;;;;;;4.38;1.17;;;12.80;74.50;;;;;;4966236;28;20056;-88
2022/03/30 12:30:30;;;;;;;3.50;1.23;;;13.20;76.30;;;;;;4960374;28;20039;-88
2022/03/30 12:32:56;;;;;;;7.75;1.35;;;13.90;75.60;;;;;;4965349;28;20042;-88
2022/03/30 12:35:25;;;;;;;5.57;1.33;;;13.00;75.70;;;;;;4942318;28;20043;-87
2022/03/30 12:38:11;;;;;;;4.57;1.25;;;12.80;76.00;;;;;;4950685;28;20049;-88
2022/03/30 12:40:40;;;;;;;3.17;1.00;;;12.50;75.40;;;;;;4949405;28;20035;-89
2022/03/30 12:43:06;;;;;;;3.97;1.30;;;12.10;76.50;;;;;;4968253;28;20070;-90
2022/03/30 12:45:32;;;;;;;4.00;1.33;;;12.10;76.50;;;;;;4954090;28;20042;-89
2022/03/30 12:48:01;;;;;;;5.22;1.40;;;12.20;77.00;;;;;;4970025;28;20138;-88
2022/03/30 12:50:33;;;;;;;3.55;1.10;;;12.80;76.50;;;;;;4957122;28;20077;-88
2022/03/30 12:53:15;;;;;;;4.40;1.25;;;13.40;76.10;;;;;;4953142;28;20520;-88
2022/03/30 12:55:48;;;;;;;6.10;1.58;;;14.20;75.30;;;;;;4974958;28;20042;-88
2022/03/30 12:58:19;;;;;;;5.15;1.08;;;14.70;73.80;;;;;;4973671;28;20039;-88
2022/03/30 13:00:46;;;;;;;5.07;1.48;;;15.20;72.70;;;;;;4957113;28;20039;-88
2022/03/30 13:03:29;;;;;;;4.68;1.23;;;15.00;71.90;;;;;;4964402;28;20069;-88
2022/03/30 13:06:22;;;;;;;4.32;1.33;;;15.00;71.70;;;;;;4954866;28;20050;-88
2022/03/30 13:09:08;;;;;;;6.13;1.20;;;15.30;71.60;;;;;;4933772;28;20054;-88
2022/03/30 13:11:46;;;;;;;6.38;1.42;;;15.60;70.10;;;;;;4950323;28;20046;-88